sensor_id;sensor_type;location;lat;lon;timestamp;P1;durP1;ratioP1;P2;durP2;ratioP2
8652;SDS011;4364;52.426;9.424;2023-09-07T00:00:31;6.87;;;5.03;;
8652;SDS011;4364;52.426;9.424;2023-09-07T00:02:58;5.40;;;4.53;;
8652;SDS011;4364;52.426;9.424;2023-09-07T00:05:26;9.23;;;5.40;;
8652;SDS011;4364;52.426;9.424;2023-09-07T00:07:52;6.43;;;5.20;;
8652;SDS011;4364;52.426;9.424;2023-09-07T00:10:19;7.00;;;5.13;;
8652;SDS011;4364;52.426;9.424;2023-09-07T00:12:46;5.90;;;4.60;;
8652;SDS011;4364;52.426;9.424;2023-09-07T00:15:12;6.90;;;4.80;;
8652;SDS011;4364;52.426;9.424;2023-09-07T00:17:39;7.20;;;4.80;;
8652;SDS011;4364;52.426;9.424;2023-09-07T00:20:06;7.37;;;5.33;;
8652;SDS011;4364;52.426;9.424;2023-09-07T00:22:37;7.20;;;5.00;;
8652;SDS011;4364;52.426;9.424;2023-09-07T00:25:04;7.43;;;5.50;;
8652;SDS011;4364;52.426;9.424;2023-09-07T00:27:33;5.93;;;4.83;;
8652;SDS011;4364;52.426;9.424;2023-09-07T00:30:01;6.33;;;5.57;;
8652;SDS011;4364;52.426;9.424;2023-09-07T00:32:31;7.37;;;5.40;;
8652;SDS011;4364;52.426;9.424;2023-09-07T00:34:59;8.73;;;5.00;;
8652;SDS011;4364;52.426;9.424;2023-09-07T00:37:25;8.73;;;5.27;;
8652;SDS011;4364;52.426;9.424;2023-09-07T00:39:52;7.97;;;5.73;;
8652;SDS011;4364;52.426;9.424;2023-09-07T00:42:19;6.07;;;5.20;;
8652;SDS011;4364;52.426;9.424;2023-09-07T00:44:45;5.63;;;5.03;;
8652;SDS011;4364;52.426;9.424;2023-09-07T00:47:12;5.90;;;4.90;;
8652;SDS011;4364;52.426;9.424;2023-09-07T00:49:40;7.37;;;5.07;;
8652;SDS011;4364;52.426;9.424;2023-09-07T00:52:07;7.43;;;4.43;;
8652;SDS011;4364;52.426;9.424;2023-09-07T00:54:36;6.70;;;5.27;;
8652;SDS011;4364;52.426;9.424;2023-09-07T00:57:04;5.30;;;4.80;;
8652;SDS011;4364;52.426;9.424;2023-09-07T00:59:32;5.77;;;4.83;;
8652;SDS011;4364;52.426;9.424;2023-09-07T01:02:00;6.93;;;5.13;;
8652;SDS011;4364;52.426;9.424;2023-09-07T01:04:29;7.43;;;5.80;;
8652;SDS011;4364;52.426;9.424;2023-09-07T01:06:56;5.97;;;5.10;;
8652;SDS011;4364;52.426;9.424;2023-09-07T01:09:30;5.40;;;4.77;;
8652;SDS011;4364;52.426;9.424;2023-09-07T01:11:58;5.97;;;5.37;;
8652;SDS011;4364;52.426;9.424;2023-09-07T01:14:24;6.13;;;5.13;;
8652;SDS011;4364;52.426;9.424;2023-09-07T01:16:51;6.60;;;5.27;;
8652;SDS011;4364;52.426;9.424;2023-09-07T01:19:18;7.07;;;5.53;;
8652;SDS011;4364;52.426;9.424;2023-09-07T01:21:45;6.27;;;5.27;;
8652;SDS011;4364;52.426;9.424;2023-09-07T01:24:12;9.03;;;6.20;;
8652;SDS011;4364;52.426;9.424;2023-09-07T01:26:41;6.97;;;5.70;;
8652;SDS011;4364;52.426;9.424;2023-09-07T01:29:09;6.10;;;5.50;;
8652;SDS011;4364;52.426;9.424;2023-09-07T01:31:35;9.40;;;5.67;;
8652;SDS011;4364;52.426;9.424;2023-09-07T01:34:04;8.57;;;5.77;;
8652;SDS011;4364;52.426;9.424;2023-09-07T01:36:32;7.37;;;6.00;;
8652;SDS011;4364;52.426;9.424;2023-09-07T01:39:00;6.97;;;5.90;;
8652;SDS011;4364;52.426;9.424;2023-09-07T01:41:27;7.23;;;5.40;;
8652;SDS011;4364;52.426;9.424;2023-09-07T01:43:55;7.67;;;6.17;;
8652;SDS011;4364;52.426;9.424;2023-09-07T01:46:22;6.30;;;5.17;;
8652;SDS011;4364;52.426;9.424;2023-09-07T01:48:49;6.60;;;5.10;;
8652;SDS011;4364;52.426;9.424;2023-09-07T01:51:16;6.50;;;5.90;;
8652;SDS011;4364;52.426;9.424;2023-09-07T01:53:42;7.93;;;5.83;;
8652;SDS011;4364;52.426;9.424;2023-09-07T01:56:09;6.13;;;5.50;;
8652;SDS011;4364;52.426;9.424;2023-09-07T01:58:36;6.33;;;4.97;;
8652;SDS011;4364;52.426;9.424;2023-09-07T02:01:03;6.80;;;5.57;;
8652;SDS011;4364;52.426;9.424;2023-09-07T02:03:30;6.20;;;5.30;;
8652;SDS011;4364;52.426;9.424;2023-09-07T02:05:56;6.03;;;4.80;;
8652;SDS011;4364;52.426;9.424;2023-09-07T02:08:23;8.10;;;5.87;;
8652;SDS011;4364;52.426;9.424;2023-09-07T02:10:49;8.80;;;5.63;;
8652;SDS011;4364;52.426;9.424;2023-09-07T02:13:16;7.00;;;6.20;;
8652;SDS011;4364;52.426;9.424;2023-09-07T02:15:42;8.47;;;5.70;;
8652;SDS011;4364;52.426;9.424;2023-09-07T02:18:09;8.80;;;6.47;;
8652;SDS011;4364;52.426;9.424;2023-09-07T02:20:36;7.47;;;5.87;;
8652;SDS011;4364;52.426;9.424;2023-09-07T02:23:02;6.43;;;5.83;;
8652;SDS011;4364;52.426;9.424;2023-09-07T02:25:29;7.37;;;5.80;;
8652;SDS011;4364;52.426;9.424;2023-09-07T02:27:57;9.53;;;6.70;;
8652;SDS011;4364;52.426;9.424;2023-09-07T02:30:23;10.73;;;7.70;;
8652;SDS011;4364;52.426;9.424;2023-09-07T02:32:50;7.50;;;6.10;;
8652;SDS011;4364;52.426;9.424;2023-09-07T02:35:18;6.60;;;5.90;;
8652;SDS011;4364;52.426;9.424;2023-09-07T02:37:44;8.47;;;6.20;;
8652;SDS011;4364;52.426;9.424;2023-09-07T02:40:11;7.50;;;6.70;;
8652;SDS011;4364;52.426;9.424;2023-09-07T02:42:38;9.80;;;7.43;;
8652;SDS011;4364;52.426;9.424;2023-09-07T02:45:05;8.03;;;6.77;;
8652;SDS011;4364;52.426;9.424;2023-09-07T02:47:32;8.67;;;6.83;;
8652;SDS011;4364;52.426;9.424;2023-09-07T02:49:59;10.97;;;7.43;;
8652;SDS011;4364;52.426;9.424;2023-09-07T02:52:27;10.00;;;6.97;;
8652;SDS011;4364;52.426;9.424;2023-09-07T02:54:53;8.13;;;7.00;;
8652;SDS011;4364;52.426;9.424;2023-09-07T02:57:20;9.03;;;6.90;;
8652;SDS011;4364;52.426;9.424;2023-09-07T02:59:47;9.83;;;7.47;;
8652;SDS011;4364;52.426;9.424;2023-09-07T03:02:13;9.80;;;7.87;;
8652;SDS011;4364;52.426;9.424;2023-09-07T03:04:40;9.23;;;7.60;;
8652;SDS011;4364;52.426;9.424;2023-09-07T03:07:07;14.27;;;8.23;;
8652;SDS011;4364;52.426;9.424;2023-09-07T03:09:36;9.07;;;7.40;;
8652;SDS011;4364;52.426;9.424;2023-09-07T03:12:02;9.83;;;7.50;;
8652;SDS011;4364;52.426;9.424;2023-09-07T03:14:29;9.17;;;7.97;;
8652;SDS011;4364;52.426;9.424;2023-09-07T03:16:59;10.27;;;8.13;;
8652;SDS011;4364;52.426;9.424;2023-09-07T03:19:25;11.97;;;9.07;;
8652;SDS011;4364;52.426;9.424;2023-09-07T03:21:52;11.80;;;8.50;;
8652;SDS011;4364;52.426;9.424;2023-09-07T03:24:20;9.57;;;8.40;;
8652;SDS011;4364;52.426;9.424;2023-09-07T03:26:46;12.07;;;8.10;;
8652;SDS011;4364;52.426;9.424;2023-09-07T03:29:13;9.33;;;7.87;;
8652;SDS011;4364;52.426;9.424;2023-09-07T03:31:40;8.70;;;7.20;;
8652;SDS011;4364;52.426;9.424;2023-09-07T03:34:07;8.93;;;7.37;;
8652;SDS011;4364;52.426;9.424;2023-09-07T03:36:33;9.07;;;7.97;;
8652;SDS011;4364;52.426;9.424;2023-09-07T03:39:00;7.47;;;6.73;;
8652;SDS011;4364;52.426;9.424;2023-09-07T03:41:26;8.20;;;7.30;;
8652;SDS011;4364;52.426;9.424;2023-09-07T03:43:57;8.50;;;7.07;;
8652;SDS011;4364;52.426;9.424;2023-09-07T03:46:26;9.53;;;6.63;;
8652;SDS011;4364;52.426;9.424;2023-09-07T03:48:53;10.23;;;8.00;;
8652;SDS011;4364;52.426;9.424;2023-09-07T03:51:19;8.83;;;7.03;;
8652;SDS011;4364;52.426;9.424;2023-09-07T03:53:46;9.10;;;6.97;;
8652;SDS011;4364;52.426;9.424;2023-09-07T03:56:13;9.20;;;7.27;;
8652;SDS011;4364;52.426;9.424;2023-09-07T03:58:40;8.83;;;7.63;;
8652;SDS011;4364;52.426;9.424;2023-09-07T04:01:08;9.23;;;7.27;;
8652;SDS011;4364;52.426;9.424;2023-09-07T04:03:35;11.53;;;7.83;;
8652;SDS011;4364;52.426;9.424;2023-09-07T04:06:02;7.73;;;6.73;;
8652;SDS011;4364;52.426;9.424;2023-09-07T04:08:29;8.43;;;7.13;;
8652;SDS011;4364;52.426;9.424;2023-09-07T04:10:56;8.53;;;7.47;;
8652;SDS011;4364;52.426;9.424;2023-09-07T04:13:22;9.97;;;7.60;;
8652;SDS011;4364;52.426;9.424;2023-09-07T04:15:48;9.00;;;7.40;;
8652;SDS011;4364;52.426;9.424;2023-09-07T04:18:15;8.37;;;6.80;;
8652;SDS011;4364;52.426;9.424;2023-09-07T04:20:43;8.67;;;6.80;;
8652;SDS011;4364;52.426;9.424;2023-09-07T04:23:11;9.27;;;7.33;;
8652;SDS011;4364;52.426;9.424;2023-09-07T04:25:38;8.97;;;7.10;;
8652;SDS011;4364;52.426;9.424;2023-09-07T04:28:08;9.30;;;7.40;;
8652;SDS011;4364;52.426;9.424;2023-09-07T04:30:38;7.50;;;6.73;;
8652;SDS011;4364;52.426;9.424;2023-09-07T04:33:06;9.00;;;7.67;;
8652;SDS011;4364;52.426;9.424;2023-09-07T04:35:35;9.30;;;7.77;;
8652;SDS011;4364;52.426;9.424;2023-09-07T04:38:02;9.00;;;7.53;;
8652;SDS011;4364;52.426;9.424;2023-09-07T04:40:28;10.20;;;7.20;;
8652;SDS011;4364;52.426;9.424;2023-09-07T04:42:55;10.17;;;8.03;;
8652;SDS011;4364;52.426;9.424;2023-09-07T04:45:22;11.87;;;7.63;;
8652;SDS011;4364;52.426;9.424;2023-09-07T04:47:49;9.60;;;8.20;;
8652;SDS011;4364;52.426;9.424;2023-09-07T04:50:16;10.23;;;8.03;;
8652;SDS011;4364;52.426;9.424;2023-09-07T04:52:43;8.53;;;7.70;;
8652;SDS011;4364;52.426;9.424;2023-09-07T04:55:09;10.27;;;7.83;;
8652;SDS011;4364;52.426;9.424;2023-09-07T04:57:36;10.37;;;8.70;;
8652;SDS011;4364;52.426;9.424;2023-09-07T05:00:05;10.93;;;8.60;;
8652;SDS011;4364;52.426;9.424;2023-09-07T05:02:35;12.27;;;8.47;;
8652;SDS011;4364;52.426;9.424;2023-09-07T05:05:06;13.40;;;8.53;;
8652;SDS011;4364;52.426;9.424;2023-09-07T05:07:33;12.60;;;8.87;;
8652;SDS011;4364;52.426;9.424;2023-09-07T05:10:00;12.40;;;9.60;;
8652;SDS011;4364;52.426;9.424;2023-09-07T05:12:29;11.47;;;8.73;;
8652;SDS011;4364;52.426;9.424;2023-09-07T05:14:56;11.53;;;8.67;;
8652;SDS011;4364;52.426;9.424;2023-09-07T05:17:22;12.53;;;9.20;;
8652;SDS011;4364;52.426;9.424;2023-09-07T05:19:49;18.10;;;10.23;;
8652;SDS011;4364;52.426;9.424;2023-09-07T05:22:15;14.77;;;10.20;;
8652;SDS011;4364;52.426;9.424;2023-09-07T05:24:44;11.37;;;9.53;;
8652;SDS011;4364;52.426;9.424;2023-09-07T05:27:13;12.30;;;9.77;;
8652;SDS011;4364;52.426;9.424;2023-09-07T05:29:40;22.53;;;11.20;;
8652;SDS011;4364;52.426;9.424;2023-09-07T05:32:06;16.37;;;10.33;;
8652;SDS011;4364;52.426;9.424;2023-09-07T05:34:35;20.70;;;10.60;;
8652;SDS011;4364;52.426;9.424;2023-09-07T05:37:01;16.20;;;10.80;;
8652;SDS011;4364;52.426;9.424;2023-09-07T05:39:28;17.33;;;11.03;;
8652;SDS011;4364;52.426;9.424;2023-09-07T05:41:56;18.57;;;10.83;;
8652;SDS011;4364;52.426;9.424;2023-09-07T05:44:23;14.37;;;10.20;;
8652;SDS011;4364;52.426;9.424;2023-09-07T05:46:49;15.17;;;10.47;;
8652;SDS011;4364;52.426;9.424;2023-09-07T05:49:16;16.50;;;9.97;;
8652;SDS011;4364;52.426;9.424;2023-09-07T05:51:43;15.77;;;10.90;;
8652;SDS011;4364;52.426;9.424;2023-09-07T05:54:10;17.50;;;10.10;;
8652;SDS011;4364;52.426;9.424;2023-09-07T05:56:36;19.20;;;10.80;;
8652;SDS011;4364;52.426;9.424;2023-09-07T05:59:03;15.57;;;10.37;;
8652;SDS011;4364;52.426;9.424;2023-09-07T06:01:30;13.77;;;10.67;;
8652;SDS011;4364;52.426;9.424;2023-09-07T06:03:56;13.97;;;10.90;;
8652;SDS011;4364;52.426;9.424;2023-09-07T06:06:23;17.40;;;11.50;;
8652;SDS011;4364;52.426;9.424;2023-09-07T06:08:50;15.33;;;10.90;;
8652;SDS011;4364;52.426;9.424;2023-09-07T06:11:16;17.07;;;11.53;;
8652;SDS011;4364;52.426;9.424;2023-09-07T06:13:43;14.93;;;11.27;;
8652;SDS011;4364;52.426;9.424;2023-09-07T06:16:10;16.17;;;11.97;;
8652;SDS011;4364;52.426;9.424;2023-09-07T06:18:36;14.50;;;10.40;;
8652;SDS011;4364;52.426;9.424;2023-09-07T06:21:03;12.43;;;11.17;;
8652;SDS011;4364;52.426;9.424;2023-09-07T06:23:31;15.57;;;11.47;;
8652;SDS011;4364;52.426;9.424;2023-09-07T06:25:59;14.87;;;11.03;;
8652;SDS011;4364;52.426;9.424;2023-09-07T06:28:26;15.47;;;11.07;;
8652;SDS011;4364;52.426;9.424;2023-09-07T06:30:53;12.53;;;10.93;;
8652;SDS011;4364;52.426;9.424;2023-09-07T06:33:20;13.67;;;11.07;;
8652;SDS011;4364;52.426;9.424;2023-09-07T06:35:47;14.27;;;11.00;;
8652;SDS011;4364;52.426;9.424;2023-09-07T06:38:14;13.73;;;11.13;;
8652;SDS011;4364;52.426;9.424;2023-09-07T06:40:47;16.50;;;11.43;;
8652;SDS011;4364;52.426;9.424;2023-09-07T06:43:14;13.20;;;10.83;;
8652;SDS011;4364;52.426;9.424;2023-09-07T06:45:41;14.57;;;10.90;;
8652;SDS011;4364;52.426;9.424;2023-09-07T06:48:08;12.27;;;10.60;;
8652;SDS011;4364;52.426;9.424;2023-09-07T06:50:34;18.00;;;11.53;;
8652;SDS011;4364;52.426;9.424;2023-09-07T06:53:01;14.43;;;11.43;;
8652;SDS011;4364;52.426;9.424;2023-09-07T06:55:29;16.10;;;11.77;;
8652;SDS011;4364;52.426;9.424;2023-09-07T06:57:56;20.00;;;11.57;;
8652;SDS011;4364;52.426;9.424;2023-09-07T07:00:23;15.53;;;11.97;;
8652;SDS011;4364;52.426;9.424;2023-09-07T07:02:50;16.97;;;12.23;;
8652;SDS011;4364;52.426;9.424;2023-09-07T07:05:17;13.87;;;12.33;;
8652;SDS011;4364;52.426;9.424;2023-09-07T07:07:44;15.80;;;12.10;;
8652;SDS011;4364;52.426;9.424;2023-09-07T07:10:11;17.17;;;11.67;;
8652;SDS011;4364;52.426;9.424;2023-09-07T07:12:39;14.10;;;10.47;;
8652;SDS011;4364;52.426;9.424;2023-09-07T07:15:06;16.17;;;11.77;;
8652;SDS011;4364;52.426;9.424;2023-09-07T07:17:33;17.93;;;12.57;;
8652;SDS011;4364;52.426;9.424;2023-09-07T07:20:00;15.50;;;12.00;;
8652;SDS011;4364;52.426;9.424;2023-09-07T07:22:27;16.27;;;12.80;;
8652;SDS011;4364;52.426;9.424;2023-09-07T07:24:54;18.23;;;12.77;;
8652;SDS011;4364;52.426;9.424;2023-09-07T07:27:21;14.13;;;11.17;;
8652;SDS011;4364;52.426;9.424;2023-09-07T07:29:48;16.20;;;11.77;;
8652;SDS011;4364;52.426;9.424;2023-09-07T07:32:14;16.50;;;11.47;;
8652;SDS011;4364;52.426;9.424;2023-09-07T07:34:41;15.50;;;10.63;;
8652;SDS011;4364;52.426;9.424;2023-09-07T07:37:09;14.20;;;10.63;;
8652;SDS011;4364;52.426;9.424;2023-09-07T07:39:36;16.57;;;11.57;;
8652;SDS011;4364;52.426;9.424;2023-09-07T07:42:03;12.97;;;10.50;;
8652;SDS011;4364;52.426;9.424;2023-09-07T07:44:32;10.97;;;9.13;;
8652;SDS011;4364;52.426;9.424;2023-09-07T07:46:58;15.90;;;11.33;;
8652;SDS011;4364;52.426;9.424;2023-09-07T07:49:25;17.00;;;10.10;;
8652;SDS011;4364;52.426;9.424;2023-09-07T07:51:53;14.53;;;10.47;;
8652;SDS011;4364;52.426;9.424;2023-09-07T07:54:22;14.40;;;10.10;;
8652;SDS011;4364;52.426;9.424;2023-09-07T07:56:51;13.70;;;10.30;;
8652;SDS011;4364;52.426;9.424;2023-09-07T07:59:18;12.87;;;9.57;;
8652;SDS011;4364;52.426;9.424;2023-09-07T08:01:45;16.30;;;9.50;;
8652;SDS011;4364;52.426;9.424;2023-09-07T08:04:13;11.97;;;10.07;;
8652;SDS011;4364;52.426;9.424;2023-09-07T08:06:40;14.50;;;10.40;;
8652;SDS011;4364;52.426;9.424;2023-09-07T08:09:07;15.80;;;10.60;;
8652;SDS011;4364;52.426;9.424;2023-09-07T08:11:34;11.03;;;9.40;;
8652;SDS011;4364;52.426;9.424;2023-09-07T08:14:01;10.00;;;9.00;;
8652;SDS011;4364;52.426;9.424;2023-09-07T08:16:28;11.63;;;9.07;;
8652;SDS011;4364;52.426;9.424;2023-09-07T08:18:56;12.00;;;9.27;;
8652;SDS011;4364;52.426;9.424;2023-09-07T08:21:23;12.83;;;9.27;;
8652;SDS011;4364;52.426;9.424;2023-09-07T08:23:49;11.07;;;9.30;;
8652;SDS011;4364;52.426;9.424;2023-09-07T08:26:16;11.10;;;8.83;;
8652;SDS011;4364;52.426;9.424;2023-09-07T08:28:44;10.63;;;8.63;;
8652;SDS011;4364;52.426;9.424;2023-09-07T08:31:12;13.10;;;8.63;;
8652;SDS011;4364;52.426;9.424;2023-09-07T08:33:41;13.43;;;8.17;;
8652;SDS011;4364;52.426;9.424;2023-09-07T08:36:07;11.33;;;8.23;;
8652;SDS011;4364;52.426;9.424;2023-09-07T08:38:34;13.07;;;8.87;;
8652;SDS011;4364;52.426;9.424;2023-09-07T08:41:02;10.53;;;8.93;;
8652;SDS011;4364;52.426;9.424;2023-09-07T08:43:35;10.90;;;8.53;;
8652;SDS011;4364;52.426;9.424;2023-09-07T08:46:17;13.17;;;7.70;;
8652;SDS011;4364;52.426;9.424;2023-09-07T08:48:47;9.67;;;8.07;;
8652;SDS011;4364;52.426;9.424;2023-09-07T08:51:16;11.37;;;7.80;;
8652;SDS011;4364;52.426;9.424;2023-09-07T08:53:45;14.17;;;8.53;;
8652;SDS011;4364;52.426;9.424;2023-09-07T08:56:18;9.87;;;7.30;;
8652;SDS011;4364;52.426;9.424;2023-09-07T08:58:47;12.37;;;8.20;;
8652;SDS011;4364;52.426;9.424;2023-09-07T09:01:17;11.33;;;7.80;;
8652;SDS011;4364;52.426;9.424;2023-09-07T09:03:45;8.83;;;7.57;;
8652;SDS011;4364;52.426;9.424;2023-09-07T09:06:12;10.23;;;7.53;;
8652;SDS011;4364;52.426;9.424;2023-09-07T09:11:10;8.40;;;7.47;;
8652;SDS011;4364;52.426;9.424;2023-09-07T09:13:37;10.83;;;7.33;;
8652;SDS011;4364;52.426;9.424;2023-09-07T09:16:05;8.87;;;7.00;;
8652;SDS011;4364;52.426;9.424;2023-09-07T09:18:32;9.70;;;7.53;;
8652;SDS011;4364;52.426;9.424;2023-09-07T09:20:59;11.63;;;6.88;;
8652;SDS011;4364;52.426;9.424;2023-09-07T09:23:35;9.43;;;6.97;;
8652;SDS011;4364;52.426;9.424;2023-09-07T09:26:04;14.55;;;7.25;;
8652;SDS011;4364;52.426;9.424;2023-09-07T09:28:32;9.18;;;6.85;;
8652;SDS011;4364;52.426;9.424;2023-09-07T09:31:02;11.77;;;7.57;;
8652;SDS011;4364;52.426;9.424;2023-09-07T09:33:32;11.68;;;7.20;;
8652;SDS011;4364;52.426;9.424;2023-09-07T09:35:59;11.80;;;6.80;;
8652;SDS011;4364;52.426;9.424;2023-09-07T09:38:33;10.30;;;7.03;;
8652;SDS011;4364;52.426;9.424;2023-09-07T09:41:01;10.13;;;6.88;;
8652;SDS011;4364;52.426;9.424;2023-09-07T09:43:29;10.70;;;7.03;;
8652;SDS011;4364;52.426;9.424;2023-09-07T09:45:56;11.50;;;7.07;;
8652;SDS011;4364;52.426;9.424;2023-09-07T09:48:24;10.20;;;6.60;;
8652;SDS011;4364;52.426;9.424;2023-09-07T09:50:54;8.55;;;6.72;;
8652;SDS011;4364;52.426;9.424;2023-09-07T09:53:22;10.65;;;7.05;;
8652;SDS011;4364;52.426;9.424;2023-09-07T09:55:50;9.60;;;6.53;;
8652;SDS011;4364;52.426;9.424;2023-09-07T09:58:20;7.75;;;6.85;;
8652;SDS011;4364;52.426;9.424;2023-09-07T10:00:48;10.45;;;6.53;;
8652;SDS011;4364;52.426;9.424;2023-09-07T10:05:49;9.32;;;6.68;;
8652;SDS011;4364;52.426;9.424;2023-09-07T10:08:17;9.88;;;6.65;;
8652;SDS011;4364;52.426;9.424;2023-09-07T10:10:48;9.80;;;6.82;;
8652;SDS011;4364;52.426;9.424;2023-09-07T10:13:29;8.05;;;6.30;;
8652;SDS011;4364;52.426;9.424;2023-09-07T10:16:05;9.27;;;6.65;;
8652;SDS011;4364;52.426;9.424;2023-09-07T10:18:37;13.25;;;6.35;;
8652;SDS011;4364;52.426;9.424;2023-09-07T10:21:05;7.43;;;6.53;;
8652;SDS011;4364;52.426;9.424;2023-09-07T10:23:36;9.43;;;5.90;;
8652;SDS011;4364;52.426;9.424;2023-09-07T10:26:16;8.90;;;6.43;;
8652;SDS011;4364;52.426;9.424;2023-09-07T10:28:44;7.68;;;6.38;;
8652;SDS011;4364;52.426;9.424;2023-09-07T10:31:18;8.07;;;5.97;;
8652;SDS011;4364;52.426;9.424;2023-09-07T10:33:46;9.93;;;6.70;;
8652;SDS011;4364;52.426;9.424;2023-09-07T10:36:22;8.65;;;6.40;;
8652;SDS011;4364;52.426;9.424;2023-09-07T10:38:54;9.20;;;6.97;;
8652;SDS011;4364;52.426;9.424;2023-09-07T10:41:22;9.55;;;7.15;;
8652;SDS011;4364;52.426;9.424;2023-09-07T10:43:50;9.32;;;6.90;;
8652;SDS011;4364;52.426;9.424;2023-09-07T10:46:18;9.98;;;6.65;;
8652;SDS011;4364;52.426;9.424;2023-09-07T10:48:52;10.57;;;6.88;;
8652;SDS011;4364;52.426;9.424;2023-09-07T10:51:19;8.15;;;6.00;;
8652;SDS011;4364;52.426;9.424;2023-09-07T10:53:46;11.05;;;6.57;;
8652;SDS011;4364;52.426;9.424;2023-09-07T10:56:13;7.32;;;6.47;;
8652;SDS011;4364;52.426;9.424;2023-09-07T10:58:41;8.00;;;6.30;;
8652;SDS011;4364;52.426;9.424;2023-09-07T11:01:09;7.32;;;6.32;;
8652;SDS011;4364;52.426;9.424;2023-09-07T11:03:36;10.23;;;6.35;;
8652;SDS011;4364;52.426;9.424;2023-09-07T11:08:38;7.22;;;6.43;;
8652;SDS011;4364;52.426;9.424;2023-09-07T11:11:05;8.55;;;6.05;;
8652;SDS011;4364;52.426;9.424;2023-09-07T11:13:31;7.60;;;6.28;;
8652;SDS011;4364;52.426;9.424;2023-09-07T11:15:59;7.93;;;6.93;;
8652;SDS011;4364;52.426;9.424;2023-09-07T11:18:26;9.15;;;6.78;;
8652;SDS011;4364;52.426;9.424;2023-09-07T11:20:53;7.63;;;6.40;;
8652;SDS011;4364;52.426;9.424;2023-09-07T11:23:20;9.77;;;6.70;;
8652;SDS011;4364;52.426;9.424;2023-09-07T11:25:48;8.32;;;6.60;;
8652;SDS011;4364;52.426;9.424;2023-09-07T11:28:19;11.48;;;6.00;;
8652;SDS011;4364;52.426;9.424;2023-09-07T11:30:53;8.93;;;5.90;;
8652;SDS011;4364;52.426;9.424;2023-09-07T11:33:23;8.20;;;6.18;;
8652;SDS011;4364;52.426;9.424;2023-09-07T11:35:51;7.85;;;6.03;;
8652;SDS011;4364;52.426;9.424;2023-09-07T11:38:20;10.82;;;7.18;;
8652;SDS011;4364;52.426;9.424;2023-09-07T11:40:47;9.35;;;5.90;;
8652;SDS011;4364;52.426;9.424;2023-09-07T11:43:14;6.53;;;5.65;;
8652;SDS011;4364;52.426;9.424;2023-09-07T11:45:43;9.27;;;6.45;;
8652;SDS011;4364;52.426;9.424;2023-09-07T11:48:10;8.02;;;6.07;;
8652;SDS011;4364;52.426;9.424;2023-09-07T11:50:38;6.45;;;5.75;;
8652;SDS011;4364;52.426;9.424;2023-09-07T11:53:06;8.27;;;6.20;;
8652;SDS011;4364;52.426;9.424;2023-09-07T11:55:34;8.52;;;5.85;;
8652;SDS011;4364;52.426;9.424;2023-09-07T11:58:01;8.15;;;6.32;;
8652;SDS011;4364;52.426;9.424;2023-09-07T12:00:28;6.75;;;6.05;;
8652;SDS011;4364;52.426;9.424;2023-09-07T12:02:57;6.55;;;5.85;;
8652;SDS011;4364;52.426;9.424;2023-09-07T12:05:24;7.03;;;6.13;;
8652;SDS011;4364;52.426;9.424;2023-09-07T12:07:51;9.13;;;6.45;;
8652;SDS011;4364;52.426;9.424;2023-09-07T12:10:17;6.60;;;5.90;;
8652;SDS011;4364;52.426;9.424;2023-09-07T12:12:44;9.57;;;6.30;;
8652;SDS011;4364;52.426;9.424;2023-09-07T12:15:11;9.27;;;6.28;;
8652;SDS011;4364;52.426;9.424;2023-09-07T12:17:37;7.07;;;5.55;;
8652;SDS011;4364;52.426;9.424;2023-09-07T12:20:04;6.53;;;5.80;;
8652;SDS011;4364;52.426;9.424;2023-09-07T12:22:38;11.60;;;6.60;;
8652;SDS011;4364;52.426;9.424;2023-09-07T12:25:05;7.55;;;6.45;;
8652;SDS011;4364;52.426;9.424;2023-09-07T12:27:41;7.32;;;6.10;;
8652;SDS011;4364;52.426;9.424;2023-09-07T12:30:20;6.80;;;5.90;;
8652;SDS011;4364;52.426;9.424;2023-09-07T12:32:49;7.20;;;6.10;;
8652;SDS011;4364;52.426;9.424;2023-09-07T12:35:16;6.50;;;5.90;;
8652;SDS011;4364;52.426;9.424;2023-09-07T12:37:43;8.50;;;6.10;;
8652;SDS011;4364;52.426;9.424;2023-09-07T12:40:10;10.68;;;5.57;;
8652;SDS011;4364;52.426;9.424;2023-09-07T12:42:39;6.47;;;5.88;;
8652;SDS011;4364;52.426;9.424;2023-09-07T12:45:08;7.78;;;5.47;;
8652;SDS011;4364;52.426;9.424;2023-09-07T12:47:35;8.15;;;5.70;;
8652;SDS011;4364;52.426;9.424;2023-09-07T12:50:02;6.60;;;5.72;;
8652;SDS011;4364;52.426;9.424;2023-09-07T12:52:31;8.05;;;5.82;;
8652;SDS011;4364;52.426;9.424;2023-09-07T12:55:01;7.60;;;6.05;;
8652;SDS011;4364;52.426;9.424;2023-09-07T12:57:28;7.75;;;5.95;;
8652;SDS011;4364;52.426;9.424;2023-09-07T12:59:55;6.70;;;5.50;;
8652;SDS011;4364;52.426;9.424;2023-09-07T13:02:21;6.05;;;5.43;;
8652;SDS011;4364;52.426;9.424;2023-09-07T13:04:48;7.40;;;5.38;;
8652;SDS011;4364;52.426;9.424;2023-09-07T13:07:14;7.15;;;5.55;;
8652;SDS011;4364;52.426;9.424;2023-09-07T13:09:43;7.05;;;5.97;;
8652;SDS011;4364;52.426;9.424;2023-09-07T13:12:11;6.40;;;5.68;;
8652;SDS011;4364;52.426;9.424;2023-09-07T13:14:37;8.57;;;5.63;;
8652;SDS011;4364;52.426;9.424;2023-09-07T13:17:04;7.38;;;6.00;;
8652;SDS011;4364;52.426;9.424;2023-09-07T13:19:30;8.60;;;5.63;;
8652;SDS011;4364;52.426;9.424;2023-09-07T13:21:57;8.43;;;5.50;;
8652;SDS011;4364;52.426;9.424;2023-09-07T13:24:24;10.10;;;5.88;;
8652;SDS011;4364;52.426;9.424;2023-09-07T13:26:50;7.20;;;5.47;;
8652;SDS011;4364;52.426;9.424;2023-09-07T13:29:17;6.35;;;5.70;;
8652;SDS011;4364;52.426;9.424;2023-09-07T13:31:44;8.13;;;5.75;;
8652;SDS011;4364;52.426;9.424;2023-09-07T13:34:11;7.28;;;5.07;;
8652;SDS011;4364;52.426;9.424;2023-09-07T13:36:37;5.45;;;4.95;;
8652;SDS011;4364;52.426;9.424;2023-09-07T13:39:04;7.18;;;4.68;;
8652;SDS011;4364;52.426;9.424;2023-09-07T13:41:31;7.03;;;4.75;;
8652;SDS011;4364;52.426;9.424;2023-09-07T13:43:58;4.97;;;4.25;;
8652;SDS011;4364;52.426;9.424;2023-09-07T13:46:25;6.50;;;4.45;;
8652;SDS011;4364;52.426;9.424;2023-09-07T13:48:51;9.98;;;5.68;;
8652;SDS011;4364;52.426;9.424;2023-09-07T13:51:18;10.98;;;5.78;;
8652;SDS011;4364;52.426;9.424;2023-09-07T13:53:44;6.13;;;5.55;;
8652;SDS011;4364;52.426;9.424;2023-09-07T13:56:11;9.52;;;5.88;;
8652;SDS011;4364;52.426;9.424;2023-09-07T13:58:38;7.82;;;5.40;;
8652;SDS011;4364;52.426;9.424;2023-09-07T14:01:05;7.68;;;5.82;;
8652;SDS011;4364;52.426;9.424;2023-09-07T14:03:31;5.68;;;5.13;;
8652;SDS011;4364;52.426;9.424;2023-09-07T14:05:58;7.55;;;5.60;;
8652;SDS011;4364;52.426;9.424;2023-09-07T14:08:25;8.52;;;5.53;;
8652;SDS011;4364;52.426;9.424;2023-09-07T14:10:52;6.03;;;5.20;;
8652;SDS011;4364;52.426;9.424;2023-09-07T14:13:18;6.57;;;5.57;;
8652;SDS011;4364;52.426;9.424;2023-09-07T14:15:45;6.65;;;5.53;;
8652;SDS011;4364;52.426;9.424;2023-09-07T14:18:12;6.05;;;5.43;;
8652;SDS011;4364;52.426;9.424;2023-09-07T14:20:38;6.85;;;5.18;;
8652;SDS011;4364;52.426;9.424;2023-09-07T14:23:05;6.53;;;5.05;;
8652;SDS011;4364;52.426;9.424;2023-09-07T14:25:31;5.10;;;4.60;;
8652;SDS011;4364;52.426;9.424;2023-09-07T14:27:58;8.25;;;5.07;;
8652;SDS011;4364;52.426;9.424;2023-09-07T14:30:25;5.93;;;5.30;;
8652;SDS011;4364;52.426;9.424;2023-09-07T14:32:51;6.75;;;4.95;;
8652;SDS011;4364;52.426;9.424;2023-09-07T14:35:18;7.65;;;5.35;;
8652;SDS011;4364;52.426;9.424;2023-09-07T14:37:44;6.13;;;5.00;;
8652;SDS011;4364;52.426;9.424;2023-09-07T14:40:11;9.00;;;5.32;;
8652;SDS011;4364;52.426;9.424;2023-09-07T14:42:39;8.80;;;5.53;;
8652;SDS011;4364;52.426;9.424;2023-09-07T14:45:05;10.00;;;5.40;;
8652;SDS011;4364;52.426;9.424;2023-09-07T14:47:32;6.38;;;4.88;;
8652;SDS011;4364;52.426;9.424;2023-09-07T14:49:59;6.72;;;5.10;;
8652;SDS011;4364;52.426;9.424;2023-09-07T14:52:25;6.03;;;5.03;;
8652;SDS011;4364;52.426;9.424;2023-09-07T14:54:53;6.10;;;5.05;;
8652;SDS011;4364;52.426;9.424;2023-09-07T14:57:20;8.00;;;5.32;;
8652;SDS011;4364;52.426;9.424;2023-09-07T14:59:47;5.65;;;4.78;;
8652;SDS011;4364;52.426;9.424;2023-09-07T15:02:14;5.80;;;5.18;;
8652;SDS011;4364;52.426;9.424;2023-09-07T15:04:41;7.53;;;5.70;;
8652;SDS011;4364;52.426;9.424;2023-09-07T15:07:10;5.97;;;5.38;;
8652;SDS011;4364;52.426;9.424;2023-09-07T15:09:36;5.72;;;5.13;;
8652;SDS011;4364;52.426;9.424;2023-09-07T15:12:03;6.70;;;4.70;;
8652;SDS011;4364;52.426;9.424;2023-09-07T15:14:30;5.75;;;5.10;;
8652;SDS011;4364;52.426;9.424;2023-09-07T15:16:57;6.65;;;5.18;;